createdAt,value
2022-12-14T00:01:36.613Z,97981.72
2022-12-14T00:04:03.743Z,97983.43
2022-12-14T00:06:32.083Z,97986.17
2022-12-14T00:09:00.479Z,97991.47
2022-12-14T00:11:27.390Z,97996.54
2022-12-14T00:13:56.255Z,97996.06
2022-12-14T00:16:23.931Z,97995.00
2022-12-14T00:18:52.588Z,97999.48
2022-12-14T00:21:19.737Z,98000.56
2022-12-14T00:23:47.124Z,98000.22
2022-12-14T00:26:18.382Z,97996.67
2022-12-14T00:28:45.653Z,98000.52
2022-12-14T00:31:15.658Z,98002.11
2022-12-14T00:33:42.614Z,98005.67
2022-12-14T00:36:10.108Z,98007.23
2022-12-14T00:38:40.292Z,98008.11
2022-12-14T00:41:07.195Z,98003.09
2022-12-14T00:43:34.029Z,98002.20
2022-12-14T00:46:00.954Z,98002.04
2022-12-14T00:48:28.052Z,98002.77
2022-12-14T00:50:55.487Z,98004.64
2022-12-14T00:53:22.938Z,98006.30
2022-12-14T00:55:50.041Z,98005.98
2022-12-14T00:58:19.482Z,98004.80
2022-12-14T01:00:46.653Z,98004.66
2022-12-14T01:03:13.644Z,98005.27
2022-12-14T01:05:41.161Z,98009.79
2022-12-14T01:08:08.163Z,98010.02
2022-12-14T01:10:38.071Z,98011.41
2022-12-14T01:13:04.911Z,98009.90
2022-12-14T01:15:31.747Z,98011.44
2022-12-14T01:17:58.530Z,98011.46
2022-12-14T01:20:25.393Z,98013.04
2022-12-14T01:22:56.333Z,98017.56
2022-12-14T01:25:23.243Z,98019.02
2022-12-14T01:27:50.210Z,98013.16
2022-12-14T01:30:19.382Z,98017.98
2022-12-14T01:32:47.088Z,98017.52
2022-12-14T01:35:14.056Z,98017.66
2022-12-14T01:37:40.908Z,98016.05
2022-12-14T01:40:08.325Z,98016.11
2022-12-14T01:42:36.184Z,98015.94
2022-12-14T01:45:03.064Z,98017.67
2022-12-14T01:47:39.645Z,98018.61
2022-12-14T01:50:30.503Z,98016.64
2022-12-14T01:53:00.125Z,98017.17
2022-12-14T01:55:49.547Z,98019.77
2022-12-14T01:58:23.172Z,98010.36
2022-12-14T02:00:52.670Z,98010.99
2022-12-14T02:03:25.551Z,98013.52
2022-12-14T02:05:59.384Z,98014.90
2022-12-14T02:08:26.303Z,98010.87
2022-12-14T02:10:53.538Z,98009.23
2022-12-14T02:13:32.994Z,98014.83
2022-12-14T02:16:00.001Z,98019.63
2022-12-14T02:18:28.638Z,98022.13
2022-12-14T02:21:35.291Z,98025.02
2022-12-14T02:24:08.902Z,98019.86
2022-12-14T02:26:54.083Z,98020.59
2022-12-14T02:29:33.048Z,98019.83
2022-12-14T02:32:18.920Z,98017.07
2022-12-14T02:35:37.992Z,98023.03
2022-12-14T02:38:11.507Z,98033.27
2022-12-14T02:41:06.390Z,98040.66
2022-12-14T02:43:58.810Z,98041.73
2022-12-14T02:46:29.345Z,98045.48
2022-12-14T02:48:56.187Z,98044.27
2022-12-14T02:51:32.607Z,98038.91
2022-12-14T02:54:21.015Z,98038.30
2022-12-14T02:56:51.536Z,98028.69
2022-12-14T02:59:18.353Z,98034.36
2022-12-14T03:01:47.212Z,98032.41
2022-12-14T03:04:14.740Z,98031.35
2022-12-14T03:07:00.160Z,98032.80
2022-12-14T03:09:27.487Z,98039.32
2022-12-14T03:12:07.589Z,98043.70
2022-12-14T03:14:36.891Z,98043.11
2022-12-14T03:17:10.665Z,98042.36
2022-12-14T03:19:40.903Z,98044.45
2022-12-14T03:22:09.238Z,98044.23
2022-12-14T03:24:42.101Z,98043.50
2022-12-14T03:27:13.322Z,98050.05
2022-12-14T03:29:43.307Z,98052.17
2022-12-14T03:32:12.262Z,98043.55
2022-12-14T03:34:47.317Z,98039.52
2022-12-14T03:37:17.724Z,98036.75
2022-12-14T03:39:44.547Z,98042.40
2022-12-14T03:42:33.320Z,98041.28
2022-12-14T03:45:05.051Z,98042.05
2022-12-14T03:48:02.299Z,98039.92
2022-12-14T03:50:37.815Z,98035.20
2022-12-14T03:53:32.531Z,98035.27
2022-12-14T03:56:37.874Z,98033.42
2022-12-14T03:59:10.052Z,98029.11
2022-12-14T04:01:55.232Z,98029.21
2022-12-14T04:04:27.780Z,98026.34
2022-12-14T04:07:23.507Z,98029.00
2022-12-14T04:10:00.167Z,98029.36
2022-12-14T04:12:51.546Z,98027.91
2022-12-14T04:15:50.016Z,98033.05
2022-12-14T04:18:44.127Z,98032.75
2022-12-14T04:21:13.738Z,98033.18
2022-12-14T04:24:01.716Z,98032.99
2022-12-14T04:26:31.284Z,98037.90
2022-12-14T04:29:18.792Z,98038.95
2022-12-14T04:31:49.321Z,98037.27
2022-12-14T04:34:18.600Z,98036.05
2022-12-14T04:37:05.133Z,98038.98
2022-12-14T04:39:41.456Z,98037.11
2022-12-14T04:42:10.443Z,98041.52
2022-12-14T04:44:39.126Z,98042.98
2022-12-14T04:47:07.886Z,98045.86
2022-12-14T04:49:51.106Z,98045.56
2022-12-14T04:52:19.239Z,98052.88
2022-12-14T04:54:56.891Z,98050.29
2022-12-14T04:57:23.729Z,98056.04
2022-12-14T04:59:50.544Z,98057.61
2022-12-14T05:02:36.361Z,98060.10
2022-12-14T05:05:08.796Z,98059.74
2022-12-14T05:07:45.103Z,98063.89
2022-12-14T05:10:27.865Z,98063.89
2022-12-14T05:13:09.015Z,98066.99
2022-12-14T05:15:39.686Z,98072.13
2022-12-14T05:18:09.756Z,98069.13
2022-12-14T05:20:36.733Z,98072.45
2022-12-14T05:23:03.552Z,98075.52
2022-12-14T05:25:30.420Z,98066.83
2022-12-14T05:27:57.293Z,98062.56
2022-12-14T05:32:11.031Z,98065.02
2022-12-14T05:34:38.033Z,98070.14
2022-12-14T05:37:04.897Z,98077.13
2022-12-14T05:39:31.770Z,98074.02
2022-12-14T05:41:58.649Z,98080.48
2022-12-14T05:44:25.526Z,98081.27
2022-12-14T05:46:52.428Z,98085.46
2022-12-14T05:49:19.334Z,98088.91
2022-12-14T05:51:46.246Z,98086.73
2022-12-14T05:54:13.090Z,98084.11
2022-12-14T05:56:39.947Z,98089.59
2022-12-14T05:59:09.181Z,98087.20
2022-12-14T06:01:36.105Z,98086.42
2022-12-14T06:04:05.529Z,98085.70
2022-12-14T06:06:33.139Z,98085.14
2022-12-14T06:08:59.996Z,98083.80
2022-12-14T06:11:26.938Z,98079.65
2022-12-14T06:13:53.810Z,98080.30
2022-12-14T06:16:24.843Z,98079.92
2022-12-14T06:18:53.642Z,98082.83
2022-12-14T06:21:22.028Z,98085.15
2022-12-14T06:23:53.796Z,98093.08
2022-12-14T06:26:20.841Z,98098.89
2022-12-14T06:28:49.984Z,98110.05
2022-12-14T06:31:18.473Z,98109.64
2022-12-14T06:33:45.499Z,98112.98
2022-12-14T06:36:19.789Z,98110.06
2022-12-14T06:38:50.073Z,98106.48
2022-12-14T06:41:17.297Z,98101.40
2022-12-14T06:43:44.216Z,98096.71
2022-12-14T06:46:15.571Z,98096.08
2022-12-14T06:48:43.048Z,98094.33
2022-12-14T06:51:09.944Z,98094.17
2022-12-14T06:53:39.111Z,98095.94
2022-12-14T06:56:10.515Z,98099.05
2022-12-14T06:58:37.704Z,98098.58
2022-12-14T07:01:05.862Z,98093.25
2022-12-14T07:03:32.975Z,98094.57
2022-12-14T07:06:00.405Z,98095.83
2022-12-14T07:08:27.752Z,98094.80
2022-12-14T07:11:00.511Z,98097.13
2022-12-14T07:13:29.783Z,98096.96
2022-12-14T07:15:57.355Z,98100.90
2022-12-14T07:18:24.288Z,98105.25
2022-12-14T07:21:05.894Z,98103.92
2022-12-14T07:23:34.303Z,98101.17
2022-12-14T07:26:06.668Z,98099.23
2022-12-14T07:28:34.465Z,98103.20
2022-12-14T07:31:01.683Z,98100.12
2022-12-14T07:33:31.215Z,98095.22
2022-12-14T07:36:10.343Z,98097.23
2022-12-14T07:38:38.251Z,98099.41
2022-12-14T07:41:08.394Z,98093.48
2022-12-14T07:43:35.262Z,98089.86
2022-12-14T07:46:03.342Z,98092.81
2022-12-14T07:48:35.333Z,98094.89
2022-12-14T07:51:11.238Z,98090.01
2022-12-14T07:53:38.291Z,98081.86
2022-12-14T07:56:12.653Z,98082.65
2022-12-14T07:58:39.541Z,98087.16
2022-12-14T08:01:22.590Z,98097.14
2022-12-14T08:03:51.031Z,98095.78
2022-12-14T08:06:18.509Z,98093.08
2022-12-14T08:08:45.503Z,98090.08
2022-12-14T08:11:12.792Z,98084.55
2022-12-14T08:13:43.409Z,98083.09
2022-12-14T08:16:15.354Z,98083.94
2022-12-14T08:18:44.709Z,98089.04
2022-12-14T08:21:12.406Z,98086.23
2022-12-14T08:23:39.347Z,98085.59
2022-12-14T08:26:08.521Z,98082.50
2022-12-14T08:28:37.773Z,98076.15
2022-12-14T08:31:06.229Z,98077.06
2022-12-14T08:33:35.971Z,98075.05
2022-12-14T08:36:13.162Z,98071.98
2022-12-14T08:38:40.678Z,98065.98
2022-12-14T08:41:08.969Z,98070.50
2022-12-14T08:43:36.049Z,98067.67
2022-12-14T08:46:03.008Z,98061.95
2022-12-14T08:48:29.834Z,98054.75
2022-12-14T08:51:06.577Z,98049.04
2022-12-14T08:53:33.937Z,98043.88
2022-12-14T08:56:05.355Z,98043.75
2022-12-14T08:58:32.201Z,98049.29
2022-12-14T09:01:06.412Z,98048.66
2022-12-14T09:03:35.528Z,98042.97
2022-12-14T09:06:06.893Z,98039.47
2022-12-14T09:08:34.214Z,98033.64
2022-12-14T09:11:01.539Z,98038.45
2022-12-14T09:13:28.856Z,98036.52
2022-12-14T09:16:06.707Z,98031.15
2022-12-14T09:18:34.572Z,98023.39
2022-12-14T09:21:01.491Z,98020.81
2022-12-14T09:23:29.130Z,98021.78
2022-12-14T09:26:02.884Z,98019.64
2022-12-14T09:28:32.838Z,98014.25
2022-12-14T09:31:04.861Z,98016.09
2022-12-14T09:33:37.381Z,98020.19
2022-12-14T09:36:05.774Z,98015.28
2022-12-14T09:38:35.827Z,98011.05
2022-12-14T09:41:08.009Z,98000.53
2022-12-14T09:43:44.084Z,97997.04
2022-12-14T09:46:23.440Z,98000.58
2022-12-14T09:49:26.170Z,97998.27
2022-12-14T09:55:31.912Z,98006.33
2022-12-14T09:58:15.796Z,97999.98
2022-12-14T10:00:51.618Z,97986.70
2022-12-14T10:03:41.346Z,97981.34
2022-12-14T10:06:59.716Z,97978.31
2022-12-14T10:09:57.463Z,97976.86
2022-12-14T10:12:34.536Z,97956.71
2022-12-14T10:15:22.848Z,97945.13
2022-12-14T10:18:17.547Z,97944.25
2022-12-14T10:21:01.883Z,97941.11
2022-12-14T10:23:31.449Z,97935.35
2022-12-14T10:26:02.999Z,97936.31
2022-12-14T10:28:56.389Z,97934.38
2022-12-14T10:31:40.996Z,97932.30
2022-12-14T10:34:23.122Z,97933.77
2022-12-14T10:37:25.831Z,97931.85
2022-12-14T10:40:17.757Z,97931.70
2022-12-14T10:43:17.945Z,97939.80
2022-12-14T10:46:26.459Z,97938.88
2022-12-14T10:49:04.882Z,97932.52
2022-12-14T10:51:38.559Z,97934.25
2022-12-14T10:54:34.194Z,97934.89
2022-12-14T10:57:01.329Z,97936.46
2022-12-14T10:59:39.549Z,97928.88
2022-12-14T11:02:27.682Z,97930.52
2022-12-14T11:05:14.906Z,97929.61
2022-12-14T11:07:45.825Z,97934.25
2022-12-14T11:10:32.538Z,97934.56
2022-12-14T11:13:05.880Z,97926.80
2022-12-14T11:15:43.987Z,97923.38
2022-12-14T11:18:24.345Z,97917.12
2022-12-14T11:20:58.070Z,97904.56
2022-12-14T11:23:39.352Z,97906.66
2022-12-14T11:26:12.619Z,97910.62
2022-12-14T11:28:41.563Z,97906.88
2022-12-14T11:31:11.393Z,97901.50
2022-12-14T11:33:45.408Z,97900.83
2022-12-14T11:36:25.171Z,97892.20
2022-12-14T11:39:24.991Z,97889.48
2022-12-14T11:41:58.370Z,97887.52
2022-12-14T11:44:26.388Z,97875.89
2022-12-14T11:46:55.291Z,97882.02
2022-12-14T11:49:27.960Z,97886.13
2022-12-14T11:51:55.600Z,97887.73
2022-12-14T11:54:22.408Z,97884.48
2022-12-14T11:56:56.471Z,97882.70
2022-12-14T11:59:23.339Z,97888.38
2022-12-14T12:01:50.447Z,97888.84
2022-12-14T12:04:17.592Z,97895.61
2022-12-14T12:06:44.534Z,97897.90
2022-12-14T12:09:34.914Z,97900.71
2022-12-14T12:12:15.282Z,97900.04
2022-12-14T12:14:42.436Z,97906.52
2022-12-14T12:17:42.154Z,97908.57
2022-12-14T12:20:16.161Z,97907.96
2022-12-14T12:22:44.572Z,97901.70
2022-12-14T12:25:26.520Z,97891.37
2022-12-14T12:28:10.620Z,97875.23
2022-12-14T12:30:39.761Z,97869.14
2022-12-14T12:33:28.843Z,97863.96
2022-12-14T12:35:56.610Z,97867.82
2022-12-14T12:38:50.481Z,97863.69
2022-12-14T12:41:20.428Z,97855.85
2022-12-14T12:44:05.468Z,97858.58
2022-12-14T12:47:07.228Z,97853.88
2022-12-14T12:49:34.126Z,97855.60
2022-12-14T12:52:06.581Z,97852.44
2022-12-14T12:54:37.921Z,97845.04
2022-12-14T12:57:06.105Z,97844.88
2022-12-14T12:59:35.085Z,97851.83
2022-12-14T13:02:13.113Z,97851.77
2022-12-14T13:04:46.538Z,97857.82
2022-12-14T13:07:30.308Z,97855.84
2022-12-14T13:10:22.671Z,97859.38
2022-12-14T13:12:56.315Z,97862.41
2022-12-14T13:15:32.866Z,97869.59
2022-12-14T13:18:48.770Z,97868.77
2022-12-14T13:21:29.673Z,97868.65
2022-12-14T13:23:59.570Z,97867.48
2022-12-14T13:27:02.949Z,97866.61
2022-12-14T13:30:07.391Z,97867.77
2022-12-14T13:32:56.611Z,97866.39
2022-12-14T13:35:47.980Z,97869.75
2022-12-14T13:38:33.572Z,97867.14
2022-12-14T13:41:19.132Z,97860.06
2022-12-14T13:44:04.551Z,97860.34
2022-12-14T13:46:31.583Z,97855.45
2022-12-14T13:49:00.973Z,97853.20
2022-12-14T13:51:31.908Z,97849.86
2022-12-14T13:53:59.672Z,97844.06
2022-12-14T13:56:33.645Z,97834.46
2022-12-14T13:59:04.660Z,97828.88
2022-12-14T14:01:51.624Z,97829.52
2022-12-14T14:04:25.197Z,97826.46
2022-12-14T14:06:53.474Z,97824.45
2022-12-14T14:09:26.457Z,97825.31
2022-12-14T14:12:25.570Z,97833.33
2022-12-14T14:15:04.759Z,97827.40
2022-12-14T14:17:47.083Z,97817.85
2022-12-14T14:20:58.593Z,97818.32
2022-12-14T14:23:31.388Z,97818.21
2022-12-14T14:26:27.440Z,97820.88
2022-12-14T14:29:32.056Z,97825.75
2022-12-14T14:32:21.661Z,97831.85
2022-12-14T14:34:49.437Z,97826.52
2022-12-14T14:37:20.420Z,97822.55
2022-12-14T14:40:20.692Z,97813.25
2022-12-14T14:43:07.865Z,97813.14
2022-12-14T14:45:38.731Z,97822.27
2022-12-14T14:48:32.573Z,97818.36
2022-12-14T14:51:12.072Z,97817.73
2022-12-14T14:53:39.530Z,97813.00
2022-12-14T14:56:35.373Z,97813.45
2022-12-14T14:59:17.478Z,97803.71
2022-12-14T15:01:50.509Z,97806.80
2022-12-14T15:04:23.686Z,97801.31
2022-12-14T15:06:57.006Z,97789.94
2022-12-14T15:09:31.113Z,97786.73
2022-12-14T15:12:04.518Z,97784.96
2022-12-14T15:14:35.099Z,97786.20
2022-12-14T15:17:22.274Z,97778.29
2022-12-14T15:19:50.206Z,97776.73
2022-12-14T15:22:19.763Z,97768.38
2022-12-14T15:24:48.867Z,97765.75
2022-12-14T15:27:37.447Z,97770.63
2022-12-14T15:30:13.435Z,97778.46
2022-12-14T15:32:45.896Z,97780.23
2022-12-14T15:35:18.751Z,97778.69
2022-12-14T15:37:59.544Z,97776.97
2022-12-14T15:40:27.883Z,97774.52
2022-12-14T15:42:56.274Z,97772.66
2022-12-14T15:45:34.721Z,97766.67
2022-12-14T15:48:23.957Z,97758.61
2022-12-14T15:50:55.272Z,97749.25
2022-12-14T15:53:32.892Z,97745.37
2022-12-14T15:56:06.762Z,97731.77
2022-12-14T15:58:38.970Z,97739.98
2022-12-14T16:01:23.182Z,97732.47
2022-12-14T16:04:01.793Z,97731.98
2022-12-14T16:06:29.133Z,97720.73
2022-12-14T16:09:09.038Z,97718.42
2022-12-14T16:11:45.856Z,97715.05
2022-12-14T16:14:23.843Z,97710.27
2022-12-14T16:16:53.245Z,97705.18
2022-12-14T16:19:27.733Z,97695.98
2022-12-14T16:22:19.151Z,97685.95
2022-12-14T16:25:16.920Z,97683.85
2022-12-14T16:27:50.176Z,97690.54
2022-12-14T16:30:28.953Z,97678.63
2022-12-14T16:33:16.353Z,97672.70
2022-12-14T16:35:43.391Z,97661.84
2022-12-14T16:38:18.475Z,97652.67
2022-12-14T16:40:48.494Z,97652.64
2022-12-14T16:43:28.837Z,97647.80
2022-12-14T16:46:12.859Z,97634.00
2022-12-14T16:48:41.990Z,97636.05
2022-12-14T16:54:30.537Z,97642.45
2022-12-14T16:57:05.821Z,97636.09
2022-12-14T16:59:48.511Z,97634.70
2022-12-14T17:02:31.648Z,97629.23
2022-12-14T17:04:59.912Z,97617.98
2022-12-14T17:07:30.730Z,97619.88
2022-12-14T17:10:00.495Z,97612.72
2022-12-14T17:12:33.254Z,97614.00
2022-12-14T17:15:03.414Z,97604.68
2022-12-14T17:17:34.217Z,97601.52
2022-12-14T17:20:02.732Z,97601.57
2022-12-14T17:22:31.560Z,97602.11
2022-12-14T17:25:02.739Z,97598.04
2022-12-14T17:27:32.417Z,97598.30
2022-12-14T17:29:59.431Z,97595.70
2022-12-14T17:32:29.847Z,97598.79
2022-12-14T17:35:00.352Z,97598.36
2022-12-14T17:37:31.135Z,97594.19
2022-12-14T17:40:08.789Z,97594.59
2022-12-14T17:42:35.851Z,97591.61
2022-12-14T17:45:05.220Z,97590.44
2022-12-14T17:50:21.775Z,97586.44
2022-12-14T17:52:52.339Z,97580.39
2022-12-14T17:55:27.797Z,97571.42
2022-12-14T17:58:01.187Z,97571.80
2022-12-14T18:00:48.608Z,97579.20
2022-12-14T18:03:16.776Z,97571.64
2022-12-14T18:05:48.851Z,97553.83
2022-12-14T18:08:22.653Z,97548.41
2022-12-14T18:10:56.337Z,97549.85
2022-12-14T18:13:23.914Z,97552.47
2022-12-14T18:15:52.138Z,97552.88
2022-12-14T18:18:20.977Z,97551.29
2022-12-14T18:20:53.101Z,97549.73
2022-12-14T18:23:25.823Z,97539.07
